createdAt,value
2018-03-22T06:58:59.667Z,5.63
2018-03-22T07:02:02.995Z,5.63
2018-03-22T07:05:06.324Z,5.66
2018-03-22T07:08:09.631Z,5.71
2018-03-22T07:11:12.961Z,5.67
2018-03-22T07:14:16.276Z,5.68
2018-03-22T07:17:19.606Z,5.71
2018-03-22T07:20:22.948Z,5.73
2018-03-22T07:23:26.290Z,5.73
2018-03-22T07:26:29.616Z,5.74
2018-03-22T07:29:32.947Z,5.77
2018-03-22T07:32:37.042Z,5.81
2018-03-22T07:35:40.362Z,5.85
2018-03-22T07:38:43.657Z,5.87
2018-03-22T07:41:46.987Z,5.80
2018-03-22T07:44:50.290Z,5.88
2018-03-22T07:47:53.625Z,5.93
2018-03-22T07:50:56.923Z,5.95
2018-03-22T07:54:00.236Z,5.96
2018-03-22T07:57:03.531Z,5.98
2018-03-22T08:00:06.848Z,5.98
2018-03-22T08:03:19.063Z,6.06
2018-03-22T08:06:22.375Z,6.04
2018-03-22T08:09:25.670Z,6.08
2018-03-22T08:12:29.014Z,6.08
2018-03-22T08:15:32.328Z,6.08
2018-03-22T08:18:36.447Z,6.10
2018-03-22T08:21:39.782Z,6.09
2018-03-22T08:24:43.094Z,6.14
2018-03-22T08:27:46.417Z,6.13
2018-03-22T08:30:49.743Z,6.16
2018-03-22T08:33:53.830Z,6.17
2018-03-22T08:36:57.147Z,6.18
2018-03-22T08:40:00.466Z,6.17
2018-03-22T08:43:03.807Z,6.17
2018-03-22T08:46:07.115Z,6.17
2018-03-22T08:49:10.447Z,6.22
2018-03-22T08:52:13.748Z,6.24
2018-03-22T08:55:17.075Z,6.34
2018-03-22T08:58:20.410Z,6.37
2018-03-22T09:01:23.735Z,6.35
2018-03-22T09:04:27.040Z,6.39
2018-03-22T09:07:30.365Z,6.44
2018-03-22T09:10:33.654Z,6.47
2018-03-22T09:13:36.982Z,6.53
2018-03-22T09:16:40.279Z,6.57
2018-03-22T09:19:43.593Z,6.65
2018-03-22T09:22:46.926Z,6.61
2018-03-22T09:25:50.230Z,6.61
2018-03-22T09:28:53.538Z,6.66
2018-03-22T09:31:56.832Z,6.76
2018-03-22T09:35:00.159Z,6.80
2018-03-22T09:38:04.270Z,6.81
2018-03-22T09:41:07.599Z,6.85
2018-03-22T09:44:11.665Z,6.87
2018-03-22T09:47:14.987Z,6.82
2018-03-22T09:50:18.303Z,6.78
2018-03-22T09:53:22.386Z,6.78
2018-03-22T09:56:25.703Z,6.83
2018-03-22T09:59:29.787Z,6.86
2018-03-22T10:02:33.104Z,6.88
2018-03-22T10:05:36.426Z,6.86
2018-03-22T10:08:39.748Z,6.80
2018-03-22T10:11:43.051Z,6.81
2018-03-22T10:14:46.369Z,6.81
2018-03-22T10:17:49.667Z,6.85
2018-03-22T10:20:52.982Z,6.91
2018-03-22T10:23:56.280Z,6.92
2018-03-22T10:26:59.591Z,6.88
2018-03-22T10:30:03.647Z,6.95
2018-03-22T10:33:06.967Z,6.99
2018-03-22T10:36:10.258Z,6.94
2018-03-22T10:39:13.571Z,6.93
2018-03-22T10:42:16.864Z,6.85
2018-03-22T10:45:20.174Z,6.87
2018-03-22T10:48:23.507Z,6.85
2018-03-22T10:51:27.551Z,6.95
2018-03-22T10:54:30.858Z,6.93
2018-03-22T10:57:34.162Z,6.94
2018-03-22T11:00:38.383Z,6.89
2018-03-22T11:03:47.060Z,6.86
2018-03-22T11:06:50.398Z,6.88
2018-03-22T11:09:53.693Z,6.88
2018-03-22T11:12:57.042Z,6.86
2018-03-22T11:16:00.365Z,6.82
2018-03-22T11:19:03.669Z,6.80
2018-03-22T11:22:06.999Z,6.77
2018-03-22T11:25:10.314Z,6.74
2018-03-22T11:28:14.403Z,6.82
2018-03-22T11:31:17.716Z,6.78
2018-03-22T11:34:21.781Z,6.78
2018-03-22T11:37:25.104Z,6.79
2018-03-22T11:40:28.410Z,6.78
2018-03-22T11:43:31.720Z,6.78
2018-03-22T11:46:35.798Z,6.79
2018-03-22T11:49:39.123Z,6.82
2018-03-22T11:52:42.414Z,6.80
2018-03-22T11:55:45.732Z,6.77
2018-03-22T11:58:49.785Z,6.75
2018-03-22T12:01:53.133Z,6.74
2018-03-22T12:04:56.411Z,6.74
2018-03-22T12:07:59.733Z,6.74
2018-03-22T12:11:03.860Z,6.71
2018-03-22T12:14:07.135Z,6.69
2018-03-22T12:17:11.213Z,6.75
2018-03-22T12:20:14.544Z,6.90
2018-03-22T12:23:18.615Z,7.04
2018-03-22T12:26:21.955Z,7.16
2018-03-22T12:29:26.014Z,7.25
2018-03-22T12:32:29.339Z,7.36
2018-03-22T12:35:32.635Z,7.42
2018-03-22T12:38:35.955Z,7.44
2018-03-22T12:41:40.038Z,7.57
2018-03-22T12:44:43.350Z,7.58
2018-03-22T12:47:46.667Z,7.59
2018-03-22T12:50:50.747Z,7.55
2018-03-22T12:53:54.063Z,7.48
2018-03-22T12:56:57.367Z,7.39
2018-03-22T13:00:00.674Z,7.36
2018-03-22T13:03:03.994Z,7.41
2018-03-22T13:06:07.321Z,7.45
2018-03-22T13:09:10.623Z,7.44
2018-03-22T13:12:13.938Z,7.45
2018-03-22T13:15:17.243Z,7.39
2018-03-22T13:18:20.563Z,7.42
2018-03-22T13:21:23.886Z,7.39
2018-03-22T13:24:27.205Z,7.39
2018-03-22T13:27:30.522Z,7.44
2018-03-22T13:30:33.815Z,7.49
2018-03-22T13:33:37.135Z,7.55
2018-03-22T13:36:41.199Z,7.57
2018-03-22T13:39:44.519Z,7.47
2018-03-22T13:42:47.824Z,7.39
2018-03-22T13:45:51.143Z,7.36
2018-03-22T13:48:55.207Z,7.30
2018-03-22T13:51:58.525Z,7.33
2018-03-22T13:55:01.858Z,7.33
2018-03-22T13:58:05.163Z,7.33
2018-03-22T14:01:08.483Z,7.38
2018-03-22T14:04:11.795Z,7.38
2018-03-22T14:07:15.142Z,7.28
2018-03-22T14:10:18.429Z,7.38
2018-03-22T14:13:22.514Z,7.39
2018-03-22T14:16:25.817Z,7.49
2018-03-22T14:19:29.139Z,7.54
2018-03-22T14:22:33.199Z,7.55
2018-03-22T14:25:36.514Z,7.61
2018-03-22T14:28:39.817Z,7.68
2018-03-22T14:31:43.134Z,7.60
2018-03-22T14:34:47.197Z,7.57
2018-03-22T14:37:50.511Z,7.56
2018-03-22T14:40:53.825Z,7.53
2018-03-22T14:43:57.155Z,7.50
2018-03-22T14:47:00.454Z,7.52
2018-03-22T14:50:03.773Z,7.46
2018-03-22T14:53:07.847Z,7.44
2018-03-22T14:56:11.914Z,7.44
2018-03-22T14:59:15.228Z,7.40
2018-03-22T15:02:18.538Z,7.32
2018-03-22T15:05:21.850Z,7.32
2018-03-22T15:08:25.933Z,7.33
2018-03-22T15:11:29.254Z,7.27
2018-03-22T15:14:32.553Z,7.24
2018-03-22T15:17:35.892Z,7.28
2018-03-22T15:20:39.195Z,7.37
2018-03-22T15:23:42.513Z,7.41
2018-03-22T15:26:45.826Z,7.42
2018-03-22T15:29:49.156Z,7.45
2018-03-22T15:32:52.450Z,7.42
2018-03-22T15:35:55.774Z,7.38
2018-03-22T15:38:59.072Z,7.42
2018-03-22T15:42:02.398Z,7.41
2018-03-22T15:45:05.700Z,7.46
2018-03-22T15:48:09.026Z,7.52
2018-03-22T15:51:12.334Z,7.47
2018-03-22T15:54:15.648Z,7.41
2018-03-22T15:57:18.955Z,7.42
2018-03-22T16:00:22.260Z,7.49
2018-03-22T16:03:25.579Z,7.49
2018-03-22T16:06:28.875Z,7.52
2018-03-22T16:09:32.190Z,7.49
2018-03-22T16:12:35.511Z,7.49
2018-03-22T16:15:38.818Z,7.44
2018-03-22T16:18:42.138Z,7.38
2018-03-22T16:21:45.454Z,7.36
2018-03-22T16:24:48.770Z,7.37
2018-03-22T16:27:52.855Z,7.30
2018-03-22T16:30:56.178Z,7.21
2018-03-22T16:33:59.498Z,7.15
2018-03-22T16:37:02.830Z,7.14
2018-03-22T16:40:06.148Z,7.12
2018-03-22T16:43:09.466Z,7.10
2018-03-22T16:46:12.788Z,7.06
2018-03-22T16:49:16.110Z,7.04
2018-03-22T16:52:19.412Z,7.02
2018-03-22T16:55:22.746Z,7.03
2018-03-22T16:58:26.043Z,6.99
2018-03-22T17:01:29.355Z,6.94
2018-03-22T17:04:33.423Z,6.88
2018-03-22T17:07:36.735Z,6.90
2018-03-22T17:10:40.055Z,6.87
2018-03-22T17:13:44.154Z,6.85
2018-03-22T17:16:47.483Z,6.82
2018-03-22T17:19:50.781Z,6.81
2018-03-22T17:22:54.087Z,6.81
2018-03-22T17:25:57.408Z,6.76
2018-03-22T17:29:00.736Z,6.71
2018-03-22T17:32:04.039Z,6.72
2018-03-22T17:35:08.126Z,6.67
2018-03-22T17:38:11.553Z,6.64
2018-03-22T17:41:14.928Z,6.62
2018-03-22T17:44:18.249Z,6.62
2018-03-22T17:47:22.331Z,6.55
2018-03-22T17:50:26.287Z,6.54
2018-03-22T17:53:29.784Z,6.54
2018-03-22T17:56:33.183Z,6.55
2018-03-22T17:59:37.267Z,6.57
2018-03-22T18:02:40.583Z,6.54
2018-03-22T18:05:44.755Z,6.51
2018-03-22T18:08:48.105Z,6.47
2018-03-22T18:11:52.237Z,6.41
2018-03-22T18:14:55.607Z,6.34
2018-03-22T18:17:59.737Z,6.29
2018-03-22T18:21:03.164Z,6.24
2018-03-22T18:24:06.510Z,6.23
2018-03-22T18:27:09.863Z,6.20
2018-03-22T18:30:13.236Z,6.13
2018-03-22T18:33:17.307Z,6.11
2018-03-22T18:36:20.680Z,6.09
2018-03-22T18:39:23.971Z,6.09
2018-03-22T18:42:27.423Z,6.09
2018-03-22T18:45:30.698Z,6.05
2018-03-22T18:48:34.044Z,6.02
2018-03-22T18:51:37.396Z,5.98
2018-03-22T18:54:40.738Z,5.95
2018-03-22T18:57:44.076Z,5.94
2018-03-22T19:00:47.398Z,5.91
2018-03-22T19:03:50.723Z,5.87
2018-03-22T19:06:54.817Z,5.84
2018-03-22T19:09:58.126Z,5.84
2018-03-22T19:13:02.224Z,5.86
2018-03-22T19:16:05.568Z,5.78
2018-03-22T19:19:08.883Z,5.76
2018-03-22T19:22:12.207Z,5.70
2018-03-22T19:25:15.543Z,5.67
2018-03-22T19:28:18.875Z,5.62
2018-03-22T19:31:22.188Z,5.62
2018-03-22T19:34:25.556Z,5.62
2018-03-22T19:37:28.844Z,5.61
2018-03-22T19:40:32.176Z,5.59
2018-03-22T19:43:35.519Z,5.53
2018-03-22T19:46:38.869Z,5.51
2018-03-22T19:49:42.203Z,5.50
2018-03-22T19:52:46.288Z,5.47
2018-03-22T19:55:49.640Z,5.47
2018-03-22T19:58:52.958Z,5.43
2018-03-22T20:01:56.297Z,5.38
2018-03-22T20:04:59.610Z,5.38
2018-03-22T20:08:02.946Z,5.31
2018-03-22T20:11:06.283Z,5.30
2018-03-22T20:14:09.607Z,5.26
2018-03-22T20:17:12.920Z,5.24
2018-03-22T20:20:16.239Z,5.25
2018-03-22T20:23:19.588Z,5.21
2018-03-22T20:26:23.656Z,5.17
2018-03-22T20:29:26.987Z,5.14
2018-03-22T20:32:31.067Z,5.11
2018-03-22T20:35:34.402Z,5.05
2018-03-22T20:38:38.475Z,5.05
2018-03-22T20:41:41.802Z,5.09
2018-03-22T20:44:45.128Z,5.05
2018-03-22T20:47:48.487Z,5.01
2018-03-22T20:50:51.814Z,5.00
2018-03-22T20:53:55.209Z,5.00
2018-03-22T20:56:58.586Z,4.92
2018-03-22T21:00:01.967Z,4.87
2018-03-22T21:03:05.309Z,4.92
2018-03-22T21:06:08.671Z,4.94
2018-03-22T21:09:12.029Z,4.91
2018-03-22T21:12:15.408Z,4.89
2018-03-22T21:15:18.744Z,4.90
2018-03-22T21:18:22.091Z,4.88
2018-03-22T21:21:26.187Z,4.84
2018-03-22T21:24:29.535Z,4.78
2018-03-22T21:27:32.914Z,4.77
2018-03-22T21:30:36.280Z,4.79
2018-03-22T21:33:39.690Z,4.80
2018-03-22T21:36:43.791Z,4.77
2018-03-22T21:39:47.186Z,4.74
2018-03-22T21:42:50.568Z,4.73
2018-03-22T21:45:53.905Z,4.80
2018-03-22T21:48:57.298Z,4.74
2018-03-22T21:52:18.975Z,4.71
2018-03-22T21:55:22.364Z,4.69
2018-03-22T21:58:25.709Z,4.69
2018-03-22T22:01:29.838Z,4.66
2018-03-22T22:04:33.947Z,4.60
2018-03-22T22:07:38.127Z,4.57
2018-03-22T22:10:41.468Z,4.60
2018-03-22T22:13:45.587Z,4.56
2018-03-22T22:16:49.000Z,4.53
2018-03-22T22:19:52.360Z,4.51
2018-03-22T22:22:56.476Z,4.41
2018-03-22T22:25:59.845Z,4.39
2018-03-22T22:29:03.168Z,4.36
2018-03-22T22:32:06.533Z,4.34
2018-03-22T22:35:09.895Z,4.31
2018-03-22T22:38:13.240Z,4.24
2018-03-22T22:41:16.583Z,4.27
2018-03-22T22:44:19.989Z,4.21
2018-03-22T22:47:23.322Z,4.21
2018-03-22T22:50:26.699Z,4.15
2018-03-22T22:53:30.051Z,4.05
2018-03-22T22:56:33.390Z,4.05
2018-03-22T22:59:36.756Z,3.95
2018-03-22T23:02:40.079Z,3.94
2018-03-22T23:05:43.415Z,3.92
2018-03-22T23:08:46.794Z,3.91
2018-03-22T23:11:50.144Z,3.92
2018-03-22T23:14:53.471Z,3.91
2018-03-22T23:17:56.808Z,3.97
2018-03-22T23:21:00.159Z,3.94
2018-03-22T23:24:03.539Z,3.94
2018-03-22T23:27:06.856Z,3.80
2018-03-22T23:30:10.212Z,3.78
2018-03-22T23:33:13.536Z,3.80
2018-03-22T23:36:16.876Z,3.83
2018-03-22T23:39:20.241Z,3.79
2018-03-22T23:42:23.566Z,3.74
2018-03-22T23:45:26.903Z,3.77
2018-03-22T23:48:30.235Z,3.76
2018-03-22T23:51:33.571Z,3.75
2018-03-22T23:54:36.948Z,3.76
2018-03-22T23:57:40.270Z,3.74
